Hovedside
METAR-TAF:

METAR-TAF

Lufthavner :

Växjö, Sverige

Växjö lufthavn

breddegrad: 56-51N, lengdegrad: 014-50E, høyde over havet: 199 m

Gjeldene værobservasjon

Denne rapporten ble laget for 22 minutter siden, klokken 05:50 UTC
Vind 3 kt fra Vest, skiftende mellom Vest-sørvest og Vest-nordvest
Temperatur -5°C
Luftfuktighet 93%
Trykk 1027 hPa
Sikt 10 km eller mer
ingen skyer under 1500 m og ingen bygeskyer

METAR: ESMX 240550Z 26003KT 240V300 CAVOK M05/M06 Q1027

Tid: 07:12 (06:12 UTC)

Varsel

Denne rapporten ble laget for 42 minutter siden, klokken 05:30 UTC
Varsel gyldig fra 24. klokken 06 UTC til 24. klokken 15 UTC
Vind 5 kt fra Vest
Sikt 10 km eller mer
ingen skyer under 1500 m og ingen bygeskyer

TAF: ESMX 240530Z 2406/2415 28005KT CAVOK

Værobservasjoner og værvarsel for over 4000 flyplasser (METAR- og TAF-rapporter).

Tilgjengelige stasjoner er representert av de røde og gule prikkene på kartet.

Hold musepekeren over prikken for å se navnet på stasjonen.

Klikk så for å se værobservasjoner og -varsler.

For å forandre kartet kan du klikke på den grønne knappen med svart kryss for å zoome inn, på den grønne knappen med strek for å zoome ut, eller på de grønne pilene for å se tilstøtende kart.


METAR-TAF: